sensor_id;sensor_type;location;lat;lon;timestamp;P1;durP1;ratioP1;P2;durP2;ratioP2
14592;SDS011;7383;52.354;9.756;2022-12-18T00:00:26;12.13;;;9.18;;
14592;SDS011;7383;52.354;9.756;2022-12-18T00:02:52;10.02;;;7.82;;
14592;SDS011;7383;52.354;9.756;2022-12-18T00:05:19;9.70;;;8.40;;
14592;SDS011;7383;52.354;9.756;2022-12-18T00:07:45;9.85;;;8.32;;
14592;SDS011;7383;52.354;9.756;2022-12-18T00:10:11;9.25;;;7.95;;
14592;SDS011;7383;52.354;9.756;2022-12-18T00:12:38;10.07;;;8.57;;
14592;SDS011;7383;52.354;9.756;2022-12-18T00:15:04;9.32;;;8.23;;
14592;SDS011;7383;52.354;9.756;2022-12-18T00:17:32;8.85;;;7.82;;
14592;SDS011;7383;52.354;9.756;2022-12-18T00:19:58;8.77;;;7.57;;
14592;SDS011;7383;52.354;9.756;2022-12-18T00:22:25;10.23;;;7.72;;
14592;SDS011;7383;52.354;9.756;2022-12-18T00:24:51;8.48;;;6.93;;
14592;SDS011;7383;52.354;9.756;2022-12-18T00:27:17;9.23;;;7.75;;
14592;SDS011;7383;52.354;9.756;2022-12-18T00:29:44;8.45;;;7.38;;
14592;SDS011;7383;52.354;9.756;2022-12-18T00:32:10;8.48;;;7.40;;
14592;SDS011;7383;52.354;9.756;2022-12-18T00:34:38;8.43;;;7.40;;
14592;SDS011;7383;52.354;9.756;2022-12-18T00:37:04;7.93;;;7.03;;
14592;SDS011;7383;52.354;9.756;2022-12-18T00:39:30;10.45;;;8.45;;
14592;SDS011;7383;52.354;9.756;2022-12-18T00:41:57;8.02;;;7.18;;
14592;SDS011;7383;52.354;9.756;2022-12-18T00:44:37;8.48;;;7.40;;
14592;SDS011;7383;52.354;9.756;2022-12-18T00:47:03;8.20;;;7.35;;
14592;SDS011;7383;52.354;9.756;2022-12-18T00:49:29;8.90;;;7.05;;
14592;SDS011;7383;52.354;9.756;2022-12-18T00:51:57;8.73;;;7.32;;
14592;SDS011;7383;52.354;9.756;2022-12-18T00:54:23;9.10;;;7.70;;
14592;SDS011;7383;52.354;9.756;2022-12-18T00:56:50;7.68;;;6.95;;
14592;SDS011;7383;52.354;9.756;2022-12-18T00:59:16;8.32;;;7.30;;
14592;SDS011;7383;52.354;9.756;2022-12-18T01:01:43;9.10;;;7.47;;
14592;SDS011;7383;52.354;9.756;2022-12-18T01:04:09;7.90;;;7.10;;
14592;SDS011;7383;52.354;9.756;2022-12-18T01:06:35;8.70;;;7.00;;
14592;SDS011;7383;52.354;9.756;2022-12-18T01:09:03;7.90;;;7.07;;
14592;SDS011;7383;52.354;9.756;2022-12-18T01:11:30;7.57;;;6.50;;
14592;SDS011;7383;52.354;9.756;2022-12-18T01:13:56;8.02;;;7.22;;
14592;SDS011;7383;52.354;9.756;2022-12-18T01:16:22;8.18;;;6.97;;
14592;SDS011;7383;52.354;9.756;2022-12-18T01:18:50;7.53;;;6.60;;
14592;SDS011;7383;52.354;9.756;2022-12-18T01:21:17;8.13;;;7.32;;
14592;SDS011;7383;52.354;9.756;2022-12-18T01:23:43;7.72;;;6.97;;
14592;SDS011;7383;52.354;9.756;2022-12-18T01:26:13;9.82;;;8.30;;
14592;SDS011;7383;52.354;9.756;2022-12-18T01:28:39;7.85;;;7.05;;
14592;SDS011;7383;52.354;9.756;2022-12-18T01:31:12;8.93;;;7.43;;
14592;SDS011;7383;52.354;9.756;2022-12-18T01:33:39;9.18;;;7.78;;
14592;SDS011;7383;52.354;9.756;2022-12-18T01:36:06;9.25;;;7.93;;
14592;SDS011;7383;52.354;9.756;2022-12-18T01:38:32;8.18;;;7.25;;
14592;SDS011;7383;52.354;9.756;2022-12-18T01:40:59;8.70;;;7.80;;
14592;SDS011;7383;52.354;9.756;2022-12-18T01:46:21;9.93;;;8.70;;
14592;SDS011;7383;52.354;9.756;2022-12-18T01:48:48;10.48;;;8.07;;
14592;SDS011;7383;52.354;9.756;2022-12-18T01:51:16;9.65;;;7.63;;
14592;SDS011;7383;52.354;9.756;2022-12-18T01:53:43;9.52;;;7.43;;
14592;SDS011;7383;52.354;9.756;2022-12-18T01:56:11;9.57;;;7.93;;
14592;SDS011;7383;52.354;9.756;2022-12-18T01:58:40;8.18;;;7.32;;
14592;SDS011;7383;52.354;9.756;2022-12-18T02:01:07;8.63;;;7.30;;
14592;SDS011;7383;52.354;9.756;2022-12-18T02:03:35;8.13;;;7.32;;
14592;SDS011;7383;52.354;9.756;2022-12-18T02:06:04;9.13;;;7.20;;
14592;SDS011;7383;52.354;9.756;2022-12-18T02:08:32;7.75;;;6.95;;
14592;SDS011;7383;52.354;9.756;2022-12-18T02:11:01;8.48;;;7.47;;
14592;SDS011;7383;52.354;9.756;2022-12-18T02:13:30;9.27;;;8.02;;
14592;SDS011;7383;52.354;9.756;2022-12-18T02:15:59;9.30;;;7.25;;
14592;SDS011;7383;52.354;9.756;2022-12-18T02:18:27;8.73;;;7.22;;
14592;SDS011;7383;52.354;9.756;2022-12-18T02:20:58;8.30;;;7.47;;
14592;SDS011;7383;52.354;9.756;2022-12-18T02:23:33;8.70;;;7.70;;
14592;SDS011;7383;52.354;9.756;2022-12-18T02:26:04;8.00;;;7.20;;
14592;SDS011;7383;52.354;9.756;2022-12-18T02:28:34;8.23;;;7.28;;
14592;SDS011;7383;52.354;9.756;2022-12-18T02:31:01;9.38;;;7.50;;
14592;SDS011;7383;52.354;9.756;2022-12-18T02:33:29;7.60;;;6.80;;
14592;SDS011;7383;52.354;9.756;2022-12-18T02:35:56;8.95;;;7.15;;
14592;SDS011;7383;52.354;9.756;2022-12-18T02:38:23;8.02;;;6.88;;
14592;SDS011;7383;52.354;9.756;2022-12-18T02:40:51;8.45;;;6.97;;
14592;SDS011;7383;52.354;9.756;2022-12-18T02:43:20;9.80;;;7.68;;
14592;SDS011;7383;52.354;9.756;2022-12-18T02:45:47;7.90;;;7.10;;
14592;SDS011;7383;52.354;9.756;2022-12-18T02:48:14;8.00;;;7.20;;
14592;SDS011;7383;52.354;9.756;2022-12-18T02:50:42;8.32;;;7.05;;
14592;SDS011;7383;52.354;9.756;2022-12-18T02:53:10;9.10;;;7.15;;
14592;SDS011;7383;52.354;9.756;2022-12-18T02:55:42;7.22;;;6.50;;
14592;SDS011;7383;52.354;9.756;2022-12-18T02:58:14;7.97;;;6.82;;
14592;SDS011;7383;52.354;9.756;2022-12-18T03:00:43;10.13;;;7.70;;
14592;SDS011;7383;52.354;9.756;2022-12-18T03:03:13;10.90;;;7.93;;
14592;SDS011;7383;52.354;9.756;2022-12-18T03:05:41;8.95;;;7.43;;
14592;SDS011;7383;52.354;9.756;2022-12-18T03:08:10;8.13;;;7.10;;
14592;SDS011;7383;52.354;9.756;2022-12-18T03:10:39;9.05;;;7.07;;
14592;SDS011;7383;52.354;9.756;2022-12-18T03:13:08;8.45;;;7.47;;
14592;SDS011;7383;52.354;9.756;2022-12-18T03:15:36;8.18;;;6.80;;
14592;SDS011;7383;52.354;9.756;2022-12-18T03:18:06;8.93;;;7.07;;
14592;SDS011;7383;52.354;9.756;2022-12-18T03:20:34;9.18;;;7.95;;
14592;SDS011;7383;52.354;9.756;2022-12-18T03:23:04;8.70;;;7.47;;
14592;SDS011;7383;52.354;9.756;2022-12-18T03:25:33;7.70;;;6.95;;
14592;SDS011;7383;52.354;9.756;2022-12-18T03:28:00;7.75;;;6.95;;
14592;SDS011;7383;52.354;9.756;2022-12-18T03:30:29;7.50;;;6.60;;
14592;SDS011;7383;52.354;9.756;2022-12-18T03:32:57;7.78;;;7.00;;
14592;SDS011;7383;52.354;9.756;2022-12-18T03:35:26;7.75;;;6.65;;
14592;SDS011;7383;52.354;9.756;2022-12-18T03:37:54;8.38;;;7.45;;
14592;SDS011;7383;52.354;9.756;2022-12-18T03:40:21;9.75;;;7.47;;
14592;SDS011;7383;52.354;9.756;2022-12-18T03:42:51;8.07;;;7.28;;
14592;SDS011;7383;52.354;9.756;2022-12-18T03:45:20;8.00;;;7.20;;
14592;SDS011;7383;52.354;9.756;2022-12-18T03:47:51;7.68;;;6.95;;
14592;SDS011;7383;52.354;9.756;2022-12-18T03:50:19;8.85;;;7.95;;
14592;SDS011;7383;52.354;9.756;2022-12-18T03:52:49;8.23;;;7.43;;
14592;SDS011;7383;52.354;9.756;2022-12-18T03:55:17;8.23;;;7.40;;
14592;SDS011;7383;52.354;9.756;2022-12-18T03:57:44;9.30;;;7.68;;
14592;SDS011;7383;52.354;9.756;2022-12-18T04:00:11;8.52;;;7.68;;
14592;SDS011;7383;52.354;9.756;2022-12-18T04:02:39;8.13;;;7.30;;
14592;SDS011;7383;52.354;9.756;2022-12-18T04:05:07;8.45;;;7.55;;
14592;SDS011;7383;52.354;9.756;2022-12-18T04:07:35;7.60;;;6.90;;
14592;SDS011;7383;52.354;9.756;2022-12-18T04:10:03;9.13;;;7.63;;
14592;SDS011;7383;52.354;9.756;2022-12-18T04:12:32;8.48;;;7.68;;
14592;SDS011;7383;52.354;9.756;2022-12-18T04:14:58;7.88;;;7.05;;
14592;SDS011;7383;52.354;9.756;2022-12-18T04:17:24;8.35;;;7.45;;
14592;SDS011;7383;52.354;9.756;2022-12-18T04:19:51;8.60;;;7.65;;
14592;SDS011;7383;52.354;9.756;2022-12-18T04:22:17;8.52;;;7.72;;
14592;SDS011;7383;52.354;9.756;2022-12-18T04:24:43;8.68;;;7.68;;
14592;SDS011;7383;52.354;9.756;2022-12-18T04:27:11;8.32;;;6.93;;
14592;SDS011;7383;52.354;9.756;2022-12-18T04:29:38;8.95;;;7.75;;
14592;SDS011;7383;52.354;9.756;2022-12-18T05:35:25;7.50;;;6.70;;
14592;SDS011;7383;52.354;9.756;2022-12-18T05:39:17;7.40;;;6.70;;
14592;SDS011;7383;52.354;9.756;2022-12-18T05:41:08;7.07;;;6.20;;
14592;SDS011;7383;52.354;9.756;2022-12-18T08:16:03;6.00;;;5.40;;
14592;SDS011;7383;52.354;9.756;2022-12-18T08:18:33;6.68;;;5.97;;
14592;SDS011;7383;52.354;9.756;2022-12-18T08:21:50;6.20;;;5.60;;
14592;SDS011;7383;52.354;9.756;2022-12-18T08:24:22;5.97;;;5.38;;
14592;SDS011;7383;52.354;9.756;2022-12-18T08:27:01;6.68;;;5.70;;
14592;SDS011;7383;52.354;9.756;2022-12-18T08:29:30;8.27;;;7.35;;
14592;SDS011;7383;52.354;9.756;2022-12-18T08:31:56;6.82;;;6.05;;
14592;SDS011;7383;52.354;9.756;2022-12-18T08:34:23;6.95;;;6.25;;
14592;SDS011;7383;52.354;9.756;2022-12-18T08:36:54;6.38;;;5.78;;
14592;SDS011;7383;52.354;9.756;2022-12-18T08:39:31;6.70;;;6.10;;
14592;SDS011;7383;52.354;9.756;2022-12-18T09:55:51;5.43;;;4.93;;
14592;SDS011;7383;52.354;9.756;2022-12-18T09:58:24;5.78;;;5.20;;
14592;SDS011;7383;52.354;9.756;2022-12-18T10:00:58;6.40;;;5.80;;
14592;SDS011;7383;52.354;9.756;2022-12-18T10:03:31;5.88;;;5.25;;
14592;SDS011;7383;52.354;9.756;2022-12-18T10:06:00;5.40;;;4.90;;
14592;SDS011;7383;52.354;9.756;2022-12-18T10:08:44;6.00;;;5.50;;
14592;SDS011;7383;52.354;9.756;2022-12-18T10:33:45;4.82;;;4.43;;
14592;SDS011;7383;52.354;9.756;2022-12-18T10:36:12;5.03;;;4.60;;
14592;SDS011;7383;52.354;9.756;2022-12-18T10:38:38;5.88;;;4.55;;
14592;SDS011;7383;52.354;9.756;2022-12-18T10:41:05;5.07;;;4.32;;
14592;SDS011;7383;52.354;9.756;2022-12-18T10:43:35;4.53;;;4.13;;
14592;SDS011;7383;52.354;9.756;2022-12-18T10:46:04;5.32;;;4.43;;
14592;SDS011;7383;52.354;9.756;2022-12-18T10:48:31;4.85;;;4.38;;
14592;SDS011;7383;52.354;9.756;2022-12-18T10:59:02;4.70;;;3.97;;
14592;SDS011;7383;52.354;9.756;2022-12-18T11:01:31;4.90;;;4.50;;
14592;SDS011;7383;52.354;9.756;2022-12-18T11:04:13;4.60;;;4.20;;
14592;SDS011;7383;52.354;9.756;2022-12-18T11:06:52;5.18;;;4.68;;
14592;SDS011;7383;52.354;9.756;2022-12-18T11:09:19;4.22;;;3.83;;
14592;SDS011;7383;52.354;9.756;2022-12-18T11:11:47;4.60;;;4.20;;
14592;SDS011;7383;52.354;9.756;2022-12-18T11:14:17;4.20;;;3.90;;
14592;SDS011;7383;52.354;9.756;2022-12-18T11:16:45;4.63;;;4.18;;
14592;SDS011;7383;52.354;9.756;2022-12-18T11:19:14;4.22;;;3.92;;
14592;SDS011;7383;52.354;9.756;2022-12-18T11:21:41;4.15;;;3.75;;
14592;SDS011;7383;52.354;9.756;2022-12-18T11:24:13;4.05;;;3.75;;
14592;SDS011;7383;52.354;9.756;2022-12-18T11:26:41;4.43;;;4.03;;
14592;SDS011;7383;52.354;9.756;2022-12-18T11:29:09;3.90;;;3.60;;
14592;SDS011;7383;52.354;9.756;2022-12-18T11:31:37;4.20;;;3.80;;
14592;SDS011;7383;52.354;9.756;2022-12-18T11:34:04;4.72;;;4.10;;
14592;SDS011;7383;52.354;9.756;2022-12-18T11:36:33;3.95;;;3.55;;
14592;SDS011;7383;52.354;9.756;2022-12-18T11:39:01;4.47;;;4.10;;
14592;SDS011;7383;52.354;9.756;2022-12-18T11:41:30;4.22;;;3.92;;
14592;SDS011;7383;52.354;9.756;2022-12-18T11:44:13;4.22;;;3.90;;
14592;SDS011;7383;52.354;9.756;2022-12-18T11:46:43;4.22;;;3.83;;
14592;SDS011;7383;52.354;9.756;2022-12-18T11:49:13;3.90;;;3.60;;
14592;SDS011;7383;52.354;9.756;2022-12-18T11:51:42;3.55;;;3.25;;
14592;SDS011;7383;52.354;9.756;2022-12-18T11:54:12;3.90;;;3.60;;
14592;SDS011;7383;52.354;9.756;2022-12-18T11:56:41;3.65;;;2.80;;
14592;SDS011;7383;52.354;9.756;2022-12-18T11:59:12;2.92;;;2.65;;
14592;SDS011;7383;52.354;9.756;2022-12-18T12:01:45;2.47;;;2.28;;
14592;SDS011;7383;52.354;9.756;2022-12-18T12:06:58;2.97;;;2.75;;
14592;SDS011;7383;52.354;9.756;2022-12-18T12:09:30;2.95;;;2.75;;
14592;SDS011;7383;52.354;9.756;2022-12-18T12:12:01;2.78;;;2.58;;
14592;SDS011;7383;52.354;9.756;2022-12-18T12:14:32;2.90;;;2.70;;
14592;SDS011;7383;52.354;9.756;2022-12-18T12:17:03;2.53;;;2.40;;
14592;SDS011;7383;52.354;9.756;2022-12-18T12:19:36;2.58;;;2.40;;
14592;SDS011;7383;52.354;9.756;2022-12-18T12:22:07;2.40;;;2.20;;
14592;SDS011;7383;52.354;9.756;2022-12-18T12:24:38;2.40;;;2.20;;
14592;SDS011;7383;52.354;9.756;2022-12-18T12:27:15;2.60;;;2.40;;
14592;SDS011;7383;52.354;9.756;2022-12-18T12:29:46;3.13;;;2.92;;
14592;SDS011;7383;52.354;9.756;2022-12-18T12:32:20;3.35;;;2.80;;
14592;SDS011;7383;52.354;9.756;2022-12-18T12:34:50;4.88;;;2.63;;
14592;SDS011;7383;52.354;9.756;2022-12-18T12:37:24;2.60;;;2.40;;
14592;SDS011;7383;52.354;9.756;2022-12-18T12:39:52;3.17;;;2.80;;
14592;SDS011;7383;52.354;9.756;2022-12-18T12:42:23;5.72;;;2.55;;
14592;SDS011;7383;52.354;9.756;2022-12-18T12:45:12;3.17;;;2.70;;
14592;SDS011;7383;52.354;9.756;2022-12-18T12:47:41;2.83;;;2.63;;
14592;SDS011;7383;52.354;9.756;2022-12-18T12:50:11;4.22;;;3.30;;
14592;SDS011;7383;52.354;9.756;2022-12-18T12:52:40;4.35;;;2.75;;
14592;SDS011;7383;52.354;9.756;2022-12-18T12:55:07;3.30;;;2.97;;
14592;SDS011;7383;52.354;9.756;2022-12-18T12:57:39;3.13;;;2.90;;
14592;SDS011;7383;52.354;9.756;2022-12-18T13:00:08;3.42;;;3.13;;
14592;SDS011;7383;52.354;9.756;2022-12-18T13:02:35;3.05;;;2.85;;
14592;SDS011;7383;52.354;9.756;2022-12-18T13:05:11;3.40;;;3.10;;
14592;SDS011;7383;52.354;9.756;2022-12-18T13:07:45;3.65;;;3.35;;
14592;SDS011;7383;52.354;9.756;2022-12-18T13:10:22;4.70;;;4.30;;
14592;SDS011;7383;52.354;9.756;2022-12-18T13:12:53;3.83;;;3.53;;
14592;SDS011;7383;52.354;9.756;2022-12-18T13:15:22;4.55;;;4.15;;
14592;SDS011;7383;52.354;9.756;2022-12-18T13:17:49;4.47;;;4.07;;
14592;SDS011;7383;52.354;9.756;2022-12-18T13:20:16;4.10;;;3.72;;
14592;SDS011;7383;52.354;9.756;2022-12-18T13:22:43;4.60;;;4.20;;
14592;SDS011;7383;52.354;9.756;2022-12-18T13:25:29;5.03;;;4.18;;
14592;SDS011;7383;52.354;9.756;2022-12-18T13:30:53;4.90;;;4.50;;
14592;SDS011;7383;52.354;9.756;2022-12-18T13:36:16;5.30;;;4.80;;
14592;SDS011;7383;52.354;9.756;2022-12-18T13:38:42;5.82;;;5.22;;
14592;SDS011;7383;52.354;9.756;2022-12-18T13:41:22;5.88;;;5.20;;
14592;SDS011;7383;52.354;9.756;2022-12-18T13:43:49;5.65;;;5.13;;
14592;SDS011;7383;52.354;9.756;2022-12-18T13:46:20;6.22;;;5.63;;
14592;SDS011;7383;52.354;9.756;2022-12-18T13:48:51;6.32;;;5.72;;
14592;SDS011;7383;52.354;9.756;2022-12-18T13:51:19;6.53;;;5.88;;
14592;SDS011;7383;52.354;9.756;2022-12-18T13:53:47;6.53;;;5.95;;
14592;SDS011;7383;52.354;9.756;2022-12-18T13:56:15;6.68;;;6.07;;
14592;SDS011;7383;52.354;9.756;2022-12-18T13:58:43;7.25;;;6.55;;
14592;SDS011;7383;52.354;9.756;2022-12-18T14:01:20;7.15;;;6.45;;
14592;SDS011;7383;52.354;9.756;2022-12-18T14:03:47;7.40;;;6.55;;
14592;SDS011;7383;52.354;9.756;2022-12-18T14:06:13;8.48;;;6.57;;
14592;SDS011;7383;52.354;9.756;2022-12-18T14:08:42;7.38;;;6.57;;
14592;SDS011;7383;52.354;9.756;2022-12-18T14:11:17;8.18;;;7.35;;
14592;SDS011;7383;52.354;9.756;2022-12-18T14:13:44;7.65;;;6.85;;
14592;SDS011;7383;52.354;9.756;2022-12-18T14:16:13;8.25;;;7.35;;
14592;SDS011;7383;52.354;9.756;2022-12-18T14:18:42;9.73;;;7.28;;
14592;SDS011;7383;52.354;9.756;2022-12-18T14:21:17;8.15;;;7.35;;
14592;SDS011;7383;52.354;9.756;2022-12-18T14:23:45;8.40;;;7.40;;
14592;SDS011;7383;52.354;9.756;2022-12-18T14:26:22;8.35;;;7.05;;
14592;SDS011;7383;52.354;9.756;2022-12-18T14:28:49;9.35;;;7.93;;
14592;SDS011;7383;52.354;9.756;2022-12-18T14:31:19;12.35;;;8.98;;
14592;SDS011;7383;52.354;9.756;2022-12-18T14:33:45;9.75;;;7.97;;
14592;SDS011;7383;52.354;9.756;2022-12-18T14:36:13;8.95;;;8.05;;
14592;SDS011;7383;52.354;9.756;2022-12-18T14:38:40;8.63;;;7.72;;
14592;SDS011;7383;52.354;9.756;2022-12-18T14:41:10;8.45;;;7.55;;
14592;SDS011;7383;52.354;9.756;2022-12-18T14:43:38;8.95;;;7.75;;
14592;SDS011;7383;52.354;9.756;2022-12-18T14:46:04;9.80;;;7.88;;
14592;SDS011;7383;52.354;9.756;2022-12-18T14:48:36;8.95;;;8.05;;
14592;SDS011;7383;52.354;9.756;2022-12-18T14:51:03;9.73;;;8.73;;
14592;SDS011;7383;52.354;9.756;2022-12-18T14:53:32;10.35;;;8.80;;
14592;SDS011;7383;52.354;9.756;2022-12-18T14:55:59;10.52;;;9.10;;
14592;SDS011;7383;52.354;9.756;2022-12-18T14:58:27;10.05;;;8.45;;
14592;SDS011;7383;52.354;9.756;2022-12-18T15:00:53;10.63;;;8.95;;
14592;SDS011;7383;52.354;9.756;2022-12-18T15:03:20;10.43;;;8.90;;
14592;SDS011;7383;52.354;9.756;2022-12-18T15:05:46;10.75;;;9.43;;
14592;SDS011;7383;52.354;9.756;2022-12-18T15:08:29;10.27;;;8.88;;
14592;SDS011;7383;52.354;9.756;2022-12-18T15:10:57;9.15;;;7.95;;
14592;SDS011;7383;52.354;9.756;2022-12-18T15:13:23;9.68;;;8.68;;
14592;SDS011;7383;52.354;9.756;2022-12-18T15:15:52;9.00;;;8.10;;
14592;SDS011;7383;52.354;9.756;2022-12-18T15:18:19;10.55;;;9.45;;
14592;SDS011;7383;52.354;9.756;2022-12-18T15:20:47;11.45;;;9.55;;
14592;SDS011;7383;52.354;9.756;2022-12-18T15:23:15;11.32;;;9.88;;
14592;SDS011;7383;52.354;9.756;2022-12-18T15:25:42;11.95;;;9.43;;
14592;SDS011;7383;52.354;9.756;2022-12-18T15:28:15;11.10;;;9.93;;
14592;SDS011;7383;52.354;9.756;2022-12-18T15:30:58;11.90;;;9.75;;
14592;SDS011;7383;52.354;9.756;2022-12-18T15:33:25;11.10;;;9.95;;
14592;SDS011;7383;52.354;9.756;2022-12-18T15:35:55;10.70;;;9.20;;
14592;SDS011;7383;52.354;9.756;2022-12-18T15:38:22;12.05;;;9.98;;
14592;SDS011;7383;52.354;9.756;2022-12-18T15:40:48;10.57;;;9.48;;
14592;SDS011;7383;52.354;9.756;2022-12-18T15:43:15;10.18;;;8.88;;
14592;SDS011;7383;52.354;9.756;2022-12-18T15:46:01;12.00;;;9.82;;
14592;SDS011;7383;52.354;9.756;2022-12-18T15:48:27;11.63;;;9.07;;
14592;SDS011;7383;52.354;9.756;2022-12-18T15:50:55;11.80;;;10.35;;
14592;SDS011;7383;52.354;9.756;2022-12-18T15:53:23;10.63;;;9.50;;
14592;SDS011;7383;52.354;9.756;2022-12-18T15:55:49;10.80;;;9.65;;
14592;SDS011;7383;52.354;9.756;2022-12-18T15:58:33;11.98;;;9.63;;
14592;SDS011;7383;52.354;9.756;2022-12-18T16:01:01;10.32;;;8.77;;
14592;SDS011;7383;52.354;9.756;2022-12-18T16:03:27;9.88;;;8.88;;
14592;SDS011;7383;52.354;9.756;2022-12-18T16:05:53;9.98;;;8.98;;
14592;SDS011;7383;52.354;9.756;2022-12-18T16:08:20;12.18;;;10.07;;
14592;SDS011;7383;52.354;9.756;2022-12-18T16:10:46;11.63;;;8.90;;
14592;SDS011;7383;52.354;9.756;2022-12-18T16:13:13;10.80;;;9.30;;
14592;SDS011;7383;52.354;9.756;2022-12-18T16:15:41;10.68;;;9.52;;
14592;SDS011;7383;52.354;9.756;2022-12-18T16:18:09;9.35;;;8.45;;
14592;SDS011;7383;52.354;9.756;2022-12-18T16:20:36;9.60;;;8.57;;
14592;SDS011;7383;52.354;9.756;2022-12-18T16:23:02;9.85;;;8.85;;
14592;SDS011;7383;52.354;9.756;2022-12-18T16:25:28;11.63;;;9.35;;
14592;SDS011;7383;52.354;9.756;2022-12-18T16:27:54;10.55;;;9.10;;
14592;SDS011;7383;52.354;9.756;2022-12-18T16:30:22;10.82;;;8.85;;
14592;SDS011;7383;52.354;9.756;2022-12-18T16:32:49;9.98;;;8.80;;
14592;SDS011;7383;52.354;9.756;2022-12-18T16:35:16;9.43;;;8.52;;
14592;SDS011;7383;52.354;9.756;2022-12-18T16:37:43;9.55;;;8.52;;
14592;SDS011;7383;52.354;9.756;2022-12-18T16:40:10;10.15;;;8.57;;
14592;SDS011;7383;52.354;9.756;2022-12-18T16:42:37;8.57;;;7.68;;
14592;SDS011;7383;52.354;9.756;2022-12-18T16:45:04;9.55;;;8.30;;
14592;SDS011;7383;52.354;9.756;2022-12-18T16:47:30;9.10;;;8.20;;
14592;SDS011;7383;52.354;9.756;2022-12-18T16:49:57;9.07;;;8.18;;
14592;SDS011;7383;52.354;9.756;2022-12-18T16:52:25;11.10;;;8.27;;
14592;SDS011;7383;52.354;9.756;2022-12-18T16:54:51;8.98;;;8.07;;
14592;SDS011;7383;52.354;9.756;2022-12-18T16:57:19;9.27;;;8.32;;
14592;SDS011;7383;52.354;9.756;2022-12-18T16:59:48;9.00;;;8.10;;
14592;SDS011;7383;52.354;9.756;2022-12-18T17:02:30;7.97;;;7.25;;
14592;SDS011;7383;52.354;9.756;2022-12-18T17:04:56;8.13;;;7.32;;
14592;SDS011;7383;52.354;9.756;2022-12-18T17:07:25;8.15;;;7.35;;
14592;SDS011;7383;52.354;9.756;2022-12-18T17:09:52;7.75;;;7.05;;
14592;SDS011;7383;52.354;9.756;2022-12-18T17:12:18;7.85;;;7.13;;
14592;SDS011;7383;52.354;9.756;2022-12-18T17:14:45;7.65;;;6.63;;
14592;SDS011;7383;52.354;9.756;2022-12-18T17:17:11;7.45;;;6.50;;
14592;SDS011;7383;52.354;9.756;2022-12-18T17:19:38;7.30;;;6.60;;
14592;SDS011;7383;52.354;9.756;2022-12-18T17:22:13;6.78;;;6.13;;
14592;SDS011;7383;52.354;9.756;2022-12-18T17:24:41;7.00;;;6.13;;
14592;SDS011;7383;52.354;9.756;2022-12-18T17:27:07;6.93;;;5.82;;
14592;SDS011;7383;52.354;9.756;2022-12-18T17:29:33;6.93;;;6.30;;
14592;SDS011;7383;52.354;9.756;2022-12-18T17:32:00;6.15;;;5.55;;
14592;SDS011;7383;52.354;9.756;2022-12-18T17:34:26;6.57;;;5.93;;
14592;SDS011;7383;52.354;9.756;2022-12-18T17:36:52;6.90;;;6.28;;
14592;SDS011;7383;52.354;9.756;2022-12-18T17:39:19;7.55;;;6.72;;
14592;SDS011;7383;52.354;9.756;2022-12-18T17:41:47;7.82;;;6.68;;
14592;SDS011;7383;52.354;9.756;2022-12-18T17:44:13;6.82;;;5.95;;
14592;SDS011;7383;52.354;9.756;2022-12-18T17:46:40;6.90;;;6.20;;
14592;SDS011;7383;52.354;9.756;2022-12-18T17:49:08;6.75;;;6.13;;
14592;SDS011;7383;52.354;9.756;2022-12-18T17:51:34;7.28;;;6.57;;
14592;SDS011;7383;52.354;9.756;2022-12-18T17:54:01;7.35;;;6.65;;
14592;SDS011;7383;52.354;9.756;2022-12-18T17:56:27;10.10;;;7.35;;
14592;SDS011;7383;52.354;9.756;2022-12-18T17:58:55;8.30;;;7.20;;
14592;SDS011;7383;52.354;9.756;2022-12-18T18:01:22;7.82;;;7.00;;
14592;SDS011;7383;52.354;9.756;2022-12-18T18:03:50;8.05;;;7.03;;
14592;SDS011;7383;52.354;9.756;2022-12-18T18:06:17;7.88;;;7.07;;
14592;SDS011;7383;52.354;9.756;2022-12-18T18:08:44;8.43;;;6.90;;
14592;SDS011;7383;52.354;9.756;2022-12-18T18:11:11;6.97;;;6.28;;
14592;SDS011;7383;52.354;9.756;2022-12-18T18:13:57;8.15;;;7.25;;
14592;SDS011;7383;52.354;9.756;2022-12-18T18:16:30;7.97;;;7.18;;
14592;SDS011;7383;52.354;9.756;2022-12-18T18:18:57;7.10;;;6.40;;
14592;SDS011;7383;52.354;9.756;2022-12-18T18:21:23;7.78;;;7.03;;
14592;SDS011;7383;52.354;9.756;2022-12-18T18:23:52;7.70;;;6.97;;
14592;SDS011;7383;52.354;9.756;2022-12-18T18:26:20;7.03;;;6.32;;
14592;SDS011;7383;52.354;9.756;2022-12-18T18:28:47;6.95;;;6.28;;
14592;SDS011;7383;52.354;9.756;2022-12-18T18:31:15;6.55;;;5.95;;
14592;SDS011;7383;52.354;9.756;2022-12-18T18:33:41;7.10;;;6.40;;
14592;SDS011;7383;52.354;9.756;2022-12-18T18:36:09;7.25;;;6.55;;
14592;SDS011;7383;52.354;9.756;2022-12-18T18:38:37;6.90;;;6.28;;
14592;SDS011;7383;52.354;9.756;2022-12-18T18:41:04;6.25;;;5.65;;
14592;SDS011;7383;52.354;9.756;2022-12-18T18:43:31;6.97;;;6.30;;
14592;SDS011;7383;52.354;9.756;2022-12-18T18:45:58;6.07;;;5.47;;
14592;SDS011;7383;52.354;9.756;2022-12-18T18:48:26;6.53;;;5.93;;
14592;SDS011;7383;52.354;9.756;2022-12-18T18:50:56;6.55;;;5.85;;
14592;SDS011;7383;52.354;9.756;2022-12-18T18:53:23;6.43;;;5.82;;
14592;SDS011;7383;52.354;9.756;2022-12-18T18:55:49;6.88;;;6.15;;
14592;SDS011;7383;52.354;9.756;2022-12-18T19:01:05;5.78;;;5.28;;
14592;SDS011;7383;52.354;9.756;2022-12-18T19:03:33;6.88;;;6.25;;
14592;SDS011;7383;52.354;9.756;2022-12-18T19:06:01;5.90;;;5.40;;
14592;SDS011;7383;52.354;9.756;2022-12-18T19:08:29;6.15;;;5.55;;
14592;SDS011;7383;52.354;9.756;2022-12-18T19:10:57;6.70;;;6.00;;
14592;SDS011;7383;52.354;9.756;2022-12-18T19:13:30;5.93;;;5.32;;
14592;SDS011;7383;52.354;9.756;2022-12-18T19:16:05;5.72;;;5.22;;
14592;SDS011;7383;52.354;9.756;2022-12-18T19:18:31;5.30;;;4.80;;
14592;SDS011;7383;52.354;9.756;2022-12-18T19:21:00;5.40;;;4.90;;
14592;SDS011;7383;52.354;9.756;2022-12-18T19:23:27;4.93;;;4.47;;
14592;SDS011;7383;52.354;9.756;2022-12-18T19:25:53;4.85;;;4.43;;
14592;SDS011;7383;52.354;9.756;2022-12-18T19:28:21;5.15;;;4.72;;
14592;SDS011;7383;52.354;9.756;2022-12-18T19:30:50;5.47;;;4.97;;
14592;SDS011;7383;52.354;9.756;2022-12-18T19:33:18;5.63;;;5.13;;
14592;SDS011;7383;52.354;9.756;2022-12-18T19:35:45;5.53;;;4.95;;
14592;SDS011;7383;52.354;9.756;2022-12-18T19:38:12;5.60;;;5.05;;
14592;SDS011;7383;52.354;9.756;2022-12-18T19:40:39;6.05;;;5.45;;
14592;SDS011;7383;52.354;9.756;2022-12-18T19:43:05;5.43;;;4.70;;
14592;SDS011;7383;52.354;9.756;2022-12-18T19:45:32;6.30;;;5.03;;
14592;SDS011;7383;52.354;9.756;2022-12-18T19:48:00;5.38;;;4.88;;
14592;SDS011;7383;52.354;9.756;2022-12-18T19:50:27;5.35;;;4.85;;
14592;SDS011;7383;52.354;9.756;2022-12-18T19:52:53;5.65;;;4.80;;
14592;SDS011;7383;52.354;9.756;2022-12-18T19:55:21;5.13;;;4.60;;
14592;SDS011;7383;52.354;9.756;2022-12-18T19:57:47;5.32;;;4.82;;
14592;SDS011;7383;52.354;9.756;2022-12-18T20:00:14;5.03;;;4.53;;
14592;SDS011;7383;52.354;9.756;2022-12-18T20:02:41;5.10;;;4.60;;
14592;SDS011;7383;52.354;9.756;2022-12-18T20:05:09;6.53;;;4.95;;
14592;SDS011;7383;52.354;9.756;2022-12-18T20:07:35;6.57;;;5.20;;
14592;SDS011;7383;52.354;9.756;2022-12-18T20:10:05;5.30;;;4.80;;
14592;SDS011;7383;52.354;9.756;2022-12-18T20:12:33;5.72;;;5.10;;
14592;SDS011;7383;52.354;9.756;2022-12-18T20:15:00;5.88;;;4.97;;
14592;SDS011;7383;52.354;9.756;2022-12-18T20:17:26;5.72;;;5.20;;
14592;SDS011;7383;52.354;9.756;2022-12-18T20:19:53;5.57;;;5.07;;
14592;SDS011;7383;52.354;9.756;2022-12-18T20:22:19;5.88;;;5.28;;
14592;SDS011;7383;52.354;9.756;2022-12-18T20:24:46;5.72;;;5.15;;
14592;SDS011;7383;52.354;9.756;2022-12-18T20:27:12;5.97;;;5.38;;
14592;SDS011;7383;52.354;9.756;2022-12-18T20:29:40;5.93;;;5.22;;
14592;SDS011;7383;52.354;9.756;2022-12-18T20:32:07;7.07;;;5.68;;
14592;SDS011;7383;52.354;9.756;2022-12-18T20:34:33;6.22;;;5.63;;
14592;SDS011;7383;52.354;9.756;2022-12-18T20:37:00;5.55;;;4.95;;
14592;SDS011;7383;52.354;9.756;2022-12-18T20:39:26;6.85;;;5.85;;
14592;SDS011;7383;52.354;9.756;2022-12-18T20:41:54;10.00;;;8.40;;
14592;SDS011;7383;52.354;9.756;2022-12-18T20:44:20;7.65;;;6.90;;